createdAt,value
2019-01-27T00:01:14.839Z,84.10
2019-01-27T00:03:44.605Z,84.10
2019-01-27T00:06:14.281Z,84.10
2019-01-27T00:08:43.648Z,84.10
2019-01-27T00:11:13.068Z,84.30
2019-01-27T00:13:42.425Z,84.40
2019-01-27T00:16:12.040Z,84.50
2019-01-27T00:18:41.414Z,84.70
2019-01-27T00:21:10.914Z,84.90
2019-01-27T00:23:40.296Z,85.20
2019-01-27T00:26:09.699Z,85.40
2019-01-27T00:28:39.079Z,85.60
2019-01-27T00:31:08.453Z,85.80
2019-01-27T00:33:37.891Z,86.00
2019-01-27T00:36:07.386Z,86.90
2019-01-27T00:38:36.838Z,86.40
2019-01-27T00:41:06.211Z,86.40
2019-01-27T00:43:35.588Z,86.60
2019-01-27T00:46:04.953Z,86.60
2019-01-27T00:48:34.357Z,86.70
2019-01-27T00:51:03.841Z,86.90
2019-01-27T00:53:33.274Z,86.70
2019-01-27T00:56:02.600Z,86.60
2019-01-27T00:58:32.030Z,86.50
2019-01-27T01:01:01.463Z,86.60
2019-01-27T01:03:30.875Z,86.70
2019-01-27T01:06:00.252Z,86.80
2019-01-27T01:08:29.635Z,86.90
2019-01-27T01:10:59.039Z,87.00
2019-01-27T01:13:28.420Z,87.00
2019-01-27T01:15:57.851Z,87.00
2019-01-27T01:18:27.329Z,86.90
2019-01-27T01:20:56.756Z,86.80
2019-01-27T01:23:26.149Z,86.70
2019-01-27T01:25:55.641Z,86.60
2019-01-27T01:28:25.008Z,86.40
2019-01-27T01:30:54.399Z,86.30
2019-01-27T01:33:23.819Z,86.20
2019-01-27T01:35:53.195Z,86.10
2019-01-27T01:38:22.630Z,85.90
2019-01-27T01:40:51.936Z,85.60
2019-01-27T01:43:21.330Z,85.40
2019-01-27T01:45:50.718Z,85.30
2019-01-27T01:48:20.147Z,85.20
2019-01-27T01:50:49.520Z,85.20
2019-01-27T01:53:18.910Z,85.50
2019-01-27T01:55:48.312Z,85.80
2019-01-27T01:58:17.753Z,85.90
2019-01-27T02:00:47.177Z,86.20
2019-01-27T02:03:16.676Z,86.20
2019-01-27T02:05:46.064Z,86.30
2019-01-27T02:08:15.439Z,86.40
2019-01-27T02:10:44.869Z,86.50
2019-01-27T02:13:14.240Z,86.50
2019-01-27T02:16:03.836Z,86.50
2019-01-27T02:18:33.573Z,86.60
2019-01-27T02:21:03.163Z,86.60
2019-01-27T02:23:32.543Z,86.60
2019-01-27T02:26:01.932Z,86.60
2019-01-27T02:28:31.341Z,86.60
2019-01-27T02:31:00.726Z,86.70
2019-01-27T02:33:30.140Z,86.80
2019-01-27T02:35:59.618Z,86.90
2019-01-27T02:38:29.031Z,87.10
2019-01-27T02:40:58.419Z,87.20
2019-01-27T02:43:27.786Z,87.30
2019-01-27T02:45:57.192Z,87.40
2019-01-27T02:48:26.580Z,87.40
2019-01-27T02:50:55.984Z,87.40
2019-01-27T02:53:25.359Z,87.30
2019-01-27T02:55:54.767Z,87.20
2019-01-27T02:58:24.206Z,86.90
2019-01-27T03:00:53.803Z,86.80
2019-01-27T03:03:23.200Z,86.80
2019-01-27T03:06:29.871Z,86.60
2019-01-27T03:09:30.100Z,86.40
2019-01-27T03:11:59.503Z,86.30
2019-01-27T03:14:28.891Z,86.30
2019-01-27T03:16:58.318Z,86.30
2019-01-27T03:19:27.685Z,86.30
2019-01-27T03:21:57.089Z,86.30
2019-01-27T03:24:26.469Z,86.40
2019-01-27T03:26:55.828Z,86.30
2019-01-27T03:29:25.227Z,86.30
2019-01-27T03:31:54.602Z,86.30
2019-01-27T03:34:23.994Z,86.20
2019-01-27T03:36:53.373Z,86.10
2019-01-27T03:39:22.827Z,86.00
2019-01-27T03:41:52.195Z,85.90
2019-01-27T03:44:21.559Z,85.80
2019-01-27T03:46:50.951Z,85.80
2019-01-27T03:49:20.327Z,85.60
2019-01-27T03:51:49.718Z,85.60
2019-01-27T03:54:19.083Z,85.60
2019-01-27T03:56:48.525Z,85.70
2019-01-27T03:59:17.970Z,85.70
2019-01-27T04:01:47.394Z,85.70
2019-01-27T04:04:16.904Z,85.70
2019-01-27T04:06:46.287Z,85.80
2019-01-27T04:09:16.051Z,85.90
2019-01-27T04:11:45.429Z,86.00
2019-01-27T04:14:14.812Z,86.10
2019-01-27T04:16:44.204Z,86.10
2019-01-27T04:19:13.595Z,86.00
2019-01-27T04:21:43.009Z,86.10
2019-01-27T04:24:12.383Z,86.10
2019-01-27T04:26:41.746Z,86.20
2019-01-27T04:29:11.069Z,86.30
2019-01-27T04:31:40.439Z,86.30
2019-01-27T04:34:09.841Z,86.50
2019-01-27T04:36:39.217Z,86.40
2019-01-27T04:39:10.639Z,86.20
2019-01-27T04:41:40.029Z,86.20
2019-01-27T04:44:09.404Z,86.00
2019-01-27T04:46:38.808Z,85.90
2019-01-27T04:49:08.193Z,85.80
2019-01-27T04:51:37.609Z,85.80
2019-01-27T04:54:06.987Z,85.80
2019-01-27T04:56:36.488Z,85.80
2019-01-27T04:59:05.959Z,85.80
2019-01-27T05:01:35.413Z,85.60
2019-01-27T05:04:13.589Z,85.50
2019-01-27T05:06:42.960Z,85.30
2019-01-27T05:09:13.376Z,85.10
2019-01-27T05:11:42.778Z,85.00
2019-01-27T05:14:12.160Z,84.80
2019-01-27T05:16:41.530Z,84.70
2019-01-27T05:19:10.931Z,84.60
2019-01-27T05:21:40.256Z,84.60
2019-01-27T05:24:09.996Z,84.60
2019-01-27T05:26:39.414Z,84.50
2019-01-27T05:29:08.803Z,84.60
2019-01-27T05:31:38.221Z,84.50
2019-01-27T05:34:07.634Z,84.60
2019-01-27T05:36:37.058Z,84.60
2019-01-27T05:39:08.742Z,84.70
2019-01-27T05:41:38.150Z,84.60
2019-01-27T05:44:07.537Z,84.50
2019-01-27T05:46:36.991Z,84.40
2019-01-27T05:49:06.312Z,84.30
2019-01-27T05:51:35.707Z,84.10
2019-01-27T05:54:05.221Z,84.00
2019-01-27T05:56:34.600Z,83.90
2019-01-27T05:59:03.996Z,83.80
2019-01-27T06:01:33.424Z,83.50
2019-01-27T06:04:02.844Z,83.30
2019-01-27T06:06:32.251Z,83.20
2019-01-27T06:09:01.683Z,83.10
2019-01-27T06:11:31.067Z,83.00
2019-01-27T06:14:00.431Z,83.00
2019-01-27T06:16:29.840Z,83.10
2019-01-27T06:18:59.217Z,83.30
2019-01-27T06:21:28.616Z,83.50
2019-01-27T06:23:57.991Z,83.60
2019-01-27T06:26:27.415Z,83.60
2019-01-27T06:28:56.800Z,83.80
2019-01-27T06:31:26.206Z,84.00
2019-01-27T06:33:59.738Z,84.20
2019-01-27T06:36:29.104Z,84.30
2019-01-27T06:38:58.515Z,84.40
2019-01-27T06:41:27.891Z,84.30
2019-01-27T06:43:57.309Z,84.20
2019-01-27T06:46:26.679Z,84.20
2019-01-27T06:48:56.084Z,84.20
2019-01-27T06:51:25.475Z,84.00
2019-01-27T06:53:54.918Z,83.90
2019-01-27T06:56:24.298Z,83.70
2019-01-27T06:59:05.025Z,83.60
2019-01-27T07:01:45.039Z,83.60
2019-01-27T07:04:26.720Z,83.30
2019-01-27T07:07:24.375Z,83.10
2019-01-27T07:10:31.013Z,83.10
2019-01-27T07:13:17.905Z,82.90
2019-01-27T07:16:06.335Z,82.60
2019-01-27T07:18:50.487Z,82.10
2019-01-27T07:21:38.719Z,81.70
2019-01-27T07:24:32.111Z,81.50
2019-01-27T07:27:18.814Z,81.20
2019-01-27T07:29:57.977Z,80.70
2019-01-27T07:32:46.320Z,80.40
2019-01-27T07:35:36.543Z,80.40
2019-01-27T07:38:11.511Z,80.10
2019-01-27T07:40:59.849Z,79.60
2019-01-27T07:43:39.011Z,79.50
2019-01-27T07:46:22.286Z,79.20
2019-01-27T07:49:10.690Z,78.70
2019-01-27T07:51:57.403Z,78.10
2019-01-27T07:54:34.088Z,77.80
2019-01-27T07:57:31.268Z,77.30
2019-01-27T08:00:17.184Z,76.90
2019-01-27T08:03:12.744Z,76.20
2019-01-27T08:06:13.260Z,75.50
2019-01-27T08:09:10.814Z,75.70
2019-01-27T08:12:01.928Z,75.50
2019-01-27T08:14:59.287Z,75.80
2019-01-27T08:17:43.902Z,75.70
2019-01-27T08:20:23.191Z,76.20
2019-01-27T08:23:15.784Z,76.10
2019-01-27T08:25:52.192Z,76.20
2019-01-27T08:28:42.451Z,75.80
2019-01-27T08:31:39.581Z,76.00
2019-01-27T08:34:17.151Z,76.00
2019-01-27T08:36:55.427Z,76.20
2019-01-27T08:39:37.643Z,76.40
2019-01-27T08:42:24.366Z,76.70
2019-01-27T08:45:12.710Z,76.90
2019-01-27T08:47:42.136Z,77.20
2019-01-27T08:50:15.109Z,77.40
2019-01-27T08:52:44.484Z,77.50
2019-01-27T08:55:14.807Z,77.70
2019-01-27T08:57:44.199Z,78.60
2019-01-27T09:00:16.844Z,78.00
2019-01-27T09:02:56.263Z,77.90
2019-01-27T09:05:43.356Z,77.80
2019-01-27T09:08:18.283Z,77.70
2019-01-27T09:11:05.267Z,77.70
2019-01-27T09:13:46.579Z,77.90
2019-01-27T09:16:34.930Z,78.10
2019-01-27T09:19:28.639Z,78.40
2019-01-27T09:22:14.263Z,78.70
2019-01-27T09:24:51.055Z,79.10
2019-01-27T09:27:37.838Z,79.20
2019-01-27T09:30:36.396Z,79.30
2019-01-27T09:33:23.390Z,79.20
2019-01-27T09:36:13.686Z,79.40
2019-01-27T09:39:04.804Z,79.60
2019-01-27T09:42:08.328Z,79.70
2019-01-27T09:44:54.918Z,79.70
2019-01-27T09:47:43.259Z,79.70
2019-01-27T09:50:30.307Z,79.70
2019-01-27T09:53:07.675Z,79.60
2019-01-27T09:56:07.879Z,79.30
2019-01-27T09:58:44.920Z,79.30
2019-01-27T10:01:36.011Z,79.20
2019-01-27T10:04:18.236Z,79.10
2019-01-27T10:06:58.567Z,79.00
2019-01-27T10:09:56.027Z,78.60
2019-01-27T10:12:43.616Z,78.40
2019-01-27T10:15:41.474Z,78.40
2019-01-27T10:18:35.939Z,77.90
2019-01-27T10:21:24.554Z,77.70
2019-01-27T10:24:12.922Z,77.60
2019-01-27T10:26:53.060Z,77.60
2019-01-27T10:29:35.927Z,77.70
2019-01-27T10:32:28.516Z,77.60
2019-01-27T10:35:35.068Z,77.90
2019-01-27T10:38:09.619Z,77.70
2019-01-27T10:40:43.216Z,77.40
2019-01-27T10:43:20.400Z,77.60
2019-01-27T10:46:23.624Z,77.30
2019-01-27T10:49:03.135Z,77.30
2019-01-27T10:51:42.090Z,77.40
2019-01-27T10:54:28.691Z,77.10
2019-01-27T10:57:17.042Z,76.90
2019-01-27T11:00:04.679Z,76.80
2019-01-27T11:02:40.722Z,76.70
2019-01-27T11:05:42.627Z,76.50
2019-01-27T11:08:35.507Z,76.20
2019-01-27T11:11:13.556Z,76.00
2019-01-27T11:14:07.651Z,75.90
2019-01-27T11:16:49.219Z,75.60
2019-01-27T11:19:35.895Z,75.20
2019-01-27T11:22:39.623Z,74.70
2019-01-27T11:25:34.768Z,75.00
2019-01-27T11:28:17.776Z,74.40
2019-01-27T11:31:02.921Z,74.00
2019-01-27T11:33:54.651Z,73.40
2019-01-27T11:36:43.003Z,73.50
2019-01-27T11:39:35.670Z,73.00
2019-01-27T11:42:30.103Z,73.50
2019-01-27T11:45:14.784Z,73.80
2019-01-27T11:48:09.302Z,73.90
2019-01-27T11:50:46.120Z,73.60
2019-01-27T11:53:15.523Z,72.80
2019-01-27T11:55:44.896Z,73.20
2019-01-27T11:58:14.332Z,73.00
2019-01-27T12:00:47.421Z,73.00
2019-01-27T12:03:16.871Z,72.60
2019-01-27T12:05:46.252Z,72.60
2019-01-27T12:08:16.017Z,73.00
2019-01-27T12:10:45.593Z,72.80
2019-01-27T12:13:14.967Z,72.50
2019-01-27T12:15:44.359Z,72.90
2019-01-27T12:18:13.740Z,72.50
2019-01-27T12:20:43.155Z,72.30
2019-01-27T12:23:12.519Z,72.10
2019-01-27T12:25:41.927Z,71.60
2019-01-27T12:28:11.223Z,71.70
2019-01-27T12:30:40.599Z,71.40
2019-01-27T12:33:10.015Z,71.10
2019-01-27T12:35:39.399Z,70.90
2019-01-27T12:38:08.724Z,70.30
2019-01-27T12:40:38.098Z,70.10
2019-01-27T12:43:07.836Z,69.50
2019-01-27T12:45:37.213Z,70.00
2019-01-27T12:48:06.599Z,69.70
2019-01-27T12:50:36.012Z,69.30
2019-01-27T12:53:05.706Z,69.70
2019-01-27T12:55:35.115Z,69.30
2019-01-27T12:58:05.009Z,69.50
2019-01-27T13:00:43.337Z,69.10
2019-01-27T13:03:12.712Z,69.30
2019-01-27T13:05:42.193Z,68.90
2019-01-27T13:08:11.594Z,68.80
2019-01-27T13:10:41.119Z,68.70
2019-01-27T13:13:12.097Z,68.30
2019-01-27T13:15:41.636Z,68.40
2019-01-27T13:18:11.030Z,68.10
2019-01-27T13:20:40.743Z,68.20
2019-01-27T13:23:10.144Z,68.20
2019-01-27T13:25:39.528Z,68.40
2019-01-27T13:28:09.023Z,68.60
2019-01-27T13:30:38.401Z,68.90
2019-01-27T13:33:07.817Z,68.80
2019-01-27T13:35:38.859Z,69.30
2019-01-27T13:38:08.498Z,69.50
2019-01-27T13:40:37.885Z,69.80
2019-01-27T13:43:07.267Z,70.10
2019-01-27T13:45:36.670Z,70.10
2019-01-27T13:48:06.084Z,70.30
2019-01-27T13:50:35.489Z,70.20
2019-01-27T13:53:05.534Z,70.40
2019-01-27T13:55:34.947Z,70.30
2019-01-27T13:58:04.827Z,70.20
2019-01-27T14:00:35.684Z,70.10
2019-01-27T14:03:05.510Z,70.10
2019-01-27T14:05:35.108Z,70.10
2019-01-27T14:08:04.626Z,69.80
2019-01-27T14:10:34.065Z,69.90
2019-01-27T14:13:03.640Z,70.20
2019-01-27T14:15:34.131Z,70.20
2019-01-27T14:18:03.602Z,70.40
2019-01-27T14:20:32.935Z,70.60
2019-01-27T14:23:02.413Z,70.60
2019-01-27T14:25:32.038Z,70.70
2019-01-27T14:28:01.402Z,70.80
2019-01-27T14:30:33.233Z,70.90
2019-01-27T14:33:02.603Z,70.80
2019-01-27T14:35:31.982Z,71.00
2019-01-27T14:38:01.387Z,70.90
2019-01-27T14:40:30.798Z,70.70
2019-01-27T14:43:01.303Z,70.50
2019-01-27T14:45:31.093Z,70.40
2019-01-27T14:48:00.603Z,70.60
2019-01-27T14:50:38.212Z,70.60
2019-01-27T14:53:08.875Z,70.80
2019-01-27T14:55:38.182Z,71.10
2019-01-27T14:58:07.664Z,71.40
2019-01-27T15:00:39.062Z,71.80
2019-01-27T15:03:09.343Z,72.00
2019-01-27T15:05:38.755Z,72.10
2019-01-27T15:08:08.457Z,72.30
2019-01-27T15:10:38.419Z,72.40
2019-01-27T15:13:09.037Z,72.60
2019-01-27T15:15:38.562Z,72.80
2019-01-27T15:18:08.072Z,73.00
2019-01-27T15:20:43.699Z,73.00
2019-01-27T15:23:13.195Z,73.00
2019-01-27T15:25:42.703Z,73.00
2019-01-27T15:28:12.098Z,73.20
2019-01-27T15:30:41.619Z,73.30
2019-01-27T15:33:11.017Z,73.50
2019-01-27T15:35:40.403Z,73.70
2019-01-27T15:38:09.834Z,73.90
2019-01-27T15:40:39.224Z,73.90
2019-01-27T15:43:08.604Z,73.90
2019-01-27T15:45:38.364Z,73.90
2019-01-27T15:48:07.755Z,74.10
2019-01-27T15:50:37.259Z,74.30
2019-01-27T15:53:06.967Z,74.50
2019-01-27T15:55:36.817Z,74.80
2019-01-27T15:58:06.384Z,75.20
2019-01-27T16:00:36.089Z,75.40
2019-01-27T16:03:05.554Z,75.40
2019-01-27T16:05:34.994Z,75.50
2019-01-27T16:08:04.541Z,75.60
2019-01-27T16:10:33.951Z,75.60
2019-01-27T16:13:03.466Z,75.70
2019-01-27T16:15:33.722Z,75.80
2019-01-27T16:18:03.420Z,75.90
2019-01-27T16:20:32.833Z,75.90
2019-01-27T16:23:24.222Z,76.00
2019-01-27T16:25:53.584Z,76.10
2019-01-27T16:28:22.958Z,76.30
2019-01-27T16:31:11.966Z,76.50
2019-01-27T16:34:00.227Z,76.70
2019-01-27T16:36:31.261Z,77.00
2019-01-27T16:39:00.844Z,77.20
2019-01-27T16:41:30.311Z,77.50
2019-01-27T16:43:59.692Z,77.80
2019-01-27T16:46:29.088Z,77.90
2019-01-27T16:48:58.500Z,78.20
2019-01-27T16:51:27.968Z,78.50
2019-01-27T16:53:57.373Z,78.50
2019-01-27T16:56:26.746Z,78.60
2019-01-27T16:58:59.426Z,78.60
2019-01-27T17:01:27.195Z,78.60
2019-01-27T17:03:56.571Z,78.70
2019-01-27T17:06:25.979Z,78.80
2019-01-27T17:08:55.474Z,78.80
2019-01-27T17:11:24.872Z,78.80
2019-01-27T17:13:54.243Z,78.70
2019-01-27T17:16:23.639Z,78.70
2019-01-27T17:18:54.208Z,78.90
2019-01-27T17:21:23.607Z,78.90
2019-01-27T17:23:53.036Z,79.00
2019-01-27T17:26:22.410Z,79.00
2019-01-27T17:28:51.828Z,79.20
2019-01-27T17:31:21.204Z,79.30
2019-01-27T17:33:50.630Z,79.10
2019-01-27T17:36:19.995Z,79.00
2019-01-27T17:38:49.421Z,78.70
2019-01-27T17:41:18.814Z,78.60
2019-01-27T17:43:48.183Z,78.40
2019-01-27T17:46:17.585Z,78.50
2019-01-27T17:48:46.970Z,78.70
2019-01-27T17:51:16.384Z,79.20
2019-01-27T17:53:54.654Z,79.50
2019-01-27T17:56:24.062Z,79.60
2019-01-27T17:59:11.029Z,79.50
2019-01-27T18:01:48.386Z,79.40
2019-01-27T18:04:54.661Z,79.60
2019-01-27T18:07:29.569Z,79.90
2019-01-27T18:10:23.773Z,80.00
2019-01-27T18:12:58.148Z,80.20
2019-01-27T18:15:28.089Z,80.30
2019-01-27T18:17:57.470Z,80.40
2019-01-27T18:20:26.871Z,80.60
2019-01-27T18:22:56.227Z,80.70
2019-01-27T18:25:25.646Z,80.70
2019-01-27T18:27:55.023Z,80.70
2019-01-27T18:30:25.524Z,80.50
2019-01-27T18:32:54.960Z,80.30
2019-01-27T18:35:25.994Z,79.90
2019-01-27T18:37:55.492Z,79.60
2019-01-27T18:40:24.858Z,79.20
2019-01-27T18:42:54.272Z,78.80
2019-01-27T18:45:23.875Z,78.40
2019-01-27T18:47:53.306Z,78.30
2019-01-27T18:50:22.875Z,78.40
2019-01-27T18:53:01.597Z,78.40
2019-01-27T18:55:36.416Z,78.40
2019-01-27T18:58:13.060Z,78.70
2019-01-27T19:00:59.816Z,78.80
2019-01-27T19:03:50.965Z,79.00
2019-01-27T19:06:54.467Z,79.10
2019-01-27T19:09:54.723Z,79.30
2019-01-27T19:12:37.532Z,79.50
2019-01-27T19:15:34.371Z,79.70
2019-01-27T19:18:25.417Z,79.60
2019-01-27T19:21:12.392Z,79.60
2019-01-27T19:24:07.548Z,79.70
2019-01-27T19:26:57.384Z,79.50
2019-01-27T19:29:44.166Z,79.50
2019-01-27T19:32:26.683Z,79.50
2019-01-27T19:35:07.019Z,79.50
2019-01-27T19:37:43.236Z,79.50
2019-01-27T19:40:31.569Z,79.50
2019-01-27T19:43:07.376Z,79.60
2019-01-27T19:45:49.527Z,79.70
2019-01-27T19:48:43.686Z,79.90
2019-01-27T19:51:37.881Z,80.70
2019-01-27T19:54:35.433Z,80.00
2019-01-27T19:57:16.964Z,80.00
2019-01-27T19:59:59.003Z,79.80
2019-01-27T20:02:47.344Z,79.60
2019-01-27T20:05:47.559Z,79.30
2019-01-27T20:08:29.979Z,78.90
2019-01-27T20:11:11.440Z,78.50
2019-01-27T20:14:02.679Z,78.10
2019-01-27T20:17:09.149Z,77.90
2019-01-27T20:19:47.300Z,77.80
2019-01-27T20:22:23.975Z,77.90
2019-01-27T20:25:12.307Z,78.20
2019-01-27T20:28:03.663Z,78.40
2019-01-27T20:30:39.928Z,78.70
2019-01-27T20:33:34.224Z,79.00
2019-01-27T20:36:28.711Z,79.20
2019-01-27T20:39:16.264Z,79.50
2019-01-27T20:42:06.320Z,79.60
2019-01-27T20:45:03.555Z,79.70
2019-01-27T20:47:57.750Z,79.80
2019-01-27T20:50:44.743Z,79.90
2019-01-27T20:53:21.957Z,80.00
2019-01-27T20:56:12.882Z,80.20
2019-01-27T20:59:07.351Z,80.20
2019-01-27T21:01:54.403Z,80.50
2019-01-27T21:04:42.500Z,80.60
2019-01-27T21:07:35.091Z,80.80
2019-01-27T21:10:24.588Z,81.00
2019-01-27T21:13:25.017Z,81.30
2019-01-27T21:16:16.474Z,81.60
2019-01-27T21:18:51.176Z,81.70
2019-01-27T21:21:20.577Z,81.80
2019-01-27T21:23:50.008Z,81.90
2019-01-27T21:26:19.387Z,81.90
2019-01-27T21:28:48.771Z,81.80
2019-01-27T21:31:18.103Z,82.10
2019-01-27T21:33:47.818Z,82.30
2019-01-27T21:36:17.226Z,82.30
2019-01-27T21:38:46.606Z,82.30
2019-01-27T21:41:16.044Z,82.30
2019-01-27T21:43:45.419Z,82.60
2019-01-27T21:46:14.915Z,82.60
2019-01-27T21:48:44.284Z,83.00
2019-01-27T21:51:13.655Z,83.20
2019-01-27T21:53:43.139Z,83.70
2019-01-27T21:56:12.523Z,83.90
2019-01-27T21:58:41.939Z,84.00
2019-01-27T22:01:11.240Z,84.00
2019-01-27T22:03:40.644Z,84.00
2019-01-27T22:06:10.055Z,84.30
2019-01-27T22:08:39.502Z,84.80
2019-01-27T22:11:08.897Z,85.20
2019-01-27T22:13:38.272Z,85.30
2019-01-27T22:16:07.706Z,85.60
2019-01-27T22:18:37.075Z,86.00
2019-01-27T22:21:06.835Z,86.00
2019-01-27T22:23:36.231Z,86.30
2019-01-27T22:26:05.619Z,86.40
2019-01-27T22:28:35.019Z,86.70
2019-01-27T22:31:04.410Z,86.60
2019-01-27T22:33:33.823Z,86.70
2019-01-27T22:36:03.220Z,86.80
2019-01-27T22:38:32.603Z,86.80
2019-01-27T22:41:01.985Z,86.90
2019-01-27T22:43:31.368Z,87.00
2019-01-27T22:46:00.784Z,87.10
2019-01-27T22:48:30.163Z,87.30
2019-01-27T22:50:59.595Z,87.50
2019-01-27T22:53:28.967Z,87.70
2019-01-27T22:55:58.337Z,88.00
2019-01-27T22:58:27.763Z,88.40
2019-01-27T23:01:10.738Z,88.80
2019-01-27T23:03:41.919Z,89.20
2019-01-27T23:06:11.334Z,89.60
2019-01-27T23:08:40.991Z,89.90
2019-01-27T23:11:10.349Z,90.10
2019-01-27T23:13:39.792Z,90.10
2019-01-27T23:16:09.236Z,90.20
2019-01-27T23:18:38.617Z,90.20
2019-01-27T23:21:08.004Z,90.20
2019-01-27T23:23:37.672Z,90.10
2019-01-27T23:26:07.167Z,90.10
2019-01-27T23:28:36.536Z,90.00
2019-01-27T23:31:06.238Z,89.90
2019-01-27T23:33:35.635Z,89.10
2019-01-27T23:36:05.623Z,88.00
2019-01-27T23:38:35.019Z,87.20
2019-01-27T23:41:04.427Z,86.60
2019-01-27T23:43:33.911Z,86.30
2019-01-27T23:46:03.382Z,86.10
2019-01-27T23:48:32.776Z,86.20
2019-01-27T23:51:02.189Z,86.60
2019-01-27T23:53:31.560Z,86.60
2019-01-27T23:56:00.964Z,86.70
2019-01-27T23:58:30.331Z,86.50
